Time,TemperatureF,DewpointF,PressureIn,WindDirection,WindDirectionDegrees,WindSpeedMPH,WindSpeedGustMPH,Humidity,HourlyPrecipIn,Conditions,Clouds,dailyrainin,SoftwareType,DateUTC
2013-01-10 13:30:00,64.0,-99.9,30.15,SE,130,18.0,-999.0,-999,-99.99,,,-99.99,,2013-01-10 19:30:00,
2013-01-10 14:24:00,64.0,-99.9,30.15,SE,130,18.0,-999.0,-999,-99.99,,,-99.99,,2013-01-10 20:24:00,
2013-01-10 15:30:00,65.0,-99.9,30.07,ESE,110,31.0,-999.0,-999,-99.99,,,-99.99,,2013-01-10 21:30:00,
2013-01-10 16:00:00,61.0,-99.9,30.13,South,180,21.0,-999.0,-999,-99.99,,,-99.99,,2013-01-10 22:00:00,
2013-01-10 16:27:00,65.0,-99.9,30.07,ESE,110,31.0,-999.0,-999,-99.99,,,-99.99,,2013-01-10 22:27:00,
2013-01-10 16:30:00,60.0,-99.9,30.15,SSW,200,22.0,-999.0,-999,-99.99,,,-99.99,,2013-01-10 22:30:00,
2013-01-10 16:44:00,61.0,-99.9,30.13,South,180,21.0,-999.0,-999,-99.99,,,-99.99,,2013-01-10 22:44:00,
2013-01-10 17:00:00,59.0,-99.9,30.15,South,180,10.0,-999.0,-999,-99.99,,,-99.99,,2013-01-10 23:00:00,
2013-01-10 17:13:00,60.0,-99.9,30.15,SSW,200,22.0,-999.0,-999,-99.99,,,-99.99,,2013-01-10 23:13:00,
2013-01-10 17:23:00,60.0,-99.9,30.15,SSW,200,22.0,-999.0,-999,-99.99,,,-99.99,,2013-01-10 23:23:00,
2013-01-10 17:30:00,60.0,-99.9,30.13,SE,140,11.0,-999.0,-999,-99.99,,,-99.99,,2013-01-10 23:30:00,
2013-01-10 17:43:00,59.0,-99.9,30.15,South,180,10.0,-999.0,-999,-99.99,,,-99.99,,2013-01-10 23:43:00,
2013-01-10 17:53:00,59.0,-99.9,30.15,South,180,10.0,-999.0,-999,-99.99,,,-99.99,,2013-01-10 23:53:00,
2013-01-10 18:00:00,59.0,-99.9,30.13,ESE,120,10.0,-999.0,-999,-99.99,,,-99.99,,2013-01-11 00:00:00,
2013-01-10 18:13:00,60.0,-99.9,30.13,SE,140,11.0,-999.0,-999,-99.99,,,-99.99,,2013-01-11 00:13:00,
2013-01-10 18:23:00,60.0,-99.9,30.13,SE,140,11.0,-999.0,-999,-99.99,,,-99.99,,2013-01-11 00:23:00,
2013-01-10 18:30:00,59.0,-99.9,30.13,ESE,120,15.0,-999.0,-999,-99.99,,,-99.99,,2013-01-11 00:30:00,
2013-01-10 18:53:00,59.0,-99.9,30.13,ESE,120,10.0,-999.0,-999,-99.99,,,-99.99,,2013-01-11 00:53:00,
2013-01-10 19:00:00,59.0,-99.9,30.11,ESE,120,15.0,-999.0,-999,-99.99,,,-99.99,,2013-01-11 01:00:00,
2013-01-10 19:13:00,59.0,-99.9,30.13,ESE,120,15.0,-999.0,-999,-99.99,,,-99.99,,2013-01-11 01:13:00,
2013-01-10 19:24:00,59.0,-99.9,30.13,ESE,120,15.0,-999.0,-999,-99.99,,,-99.99,,2013-01-11 01:24:00,
2013-01-10 19:30:00,60.0,-99.9,30.10,ESE,120,21.0,-999.0,-999,-99.99,,,-99.99,,2013-01-11 01:30:00,
2013-01-10 19:44:00,59.0,-99.9,30.11,ESE,120,15.0,-999.0,-999,-99.99,,,-99.99,,2013-01-11 01:44:00,
2013-01-10 19:53:00,59.0,-99.9,30.11,ESE,120,15.0,-999.0,-999,-99.99,,,-99.99,,2013-01-11 01:53:00,
2013-01-10 20:00:00,60.0,-99.9,30.09,ESE,120,20.0,-999.0,-999,-99.99,,,-99.99,,2013-01-11 02:00:00,
2013-01-10 20:13:00,60.0,-99.9,30.10,ESE,120,21.0,-999.0,-999,-99.99,,,-99.99,,2013-01-11 02:13:00,
2013-01-10 20:24:00,60.0,-99.9,30.10,ESE,120,21.0,-999.0,-999,-99.99,,,-99.99,,2013-01-11 02:24:00,
2013-01-10 20:30:00,60.0,-99.9,30.09,ESE,120,22.0,-999.0,-999,-99.99,,,-99.99,,2013-01-11 02:30:00,
2013-01-10 20:54:00,60.0,-99.9,30.09,ESE,120,20.0,-999.0,-999,-99.99,,,-99.99,,2013-01-11 02:54:00,
2013-01-10 21:00:00,60.0,-99.9,30.05,ESE,120,25.0,-999.0,-999,-99.99,,,-99.99,,2013-01-11 03:00:00,
2013-01-10 21:13:00,60.0,-99.9,30.09,ESE,120,22.0,-999.0,-999,-99.99,,,-99.99,,2013-01-11 03:13:00,
2013-01-10 21:23:00,60.0,-99.9,30.09,ESE,120,22.0,-999.0,-999,-99.99,,,-99.99,,2013-01-11 03:23:00,
2013-01-10 21:30:00,61.0,-99.9,30.06,SE,130,31.0,-999.0,-999,-99.99,,,-99.99,,2013-01-11 03:30:00,
2013-01-10 21:43:00,60.0,-99.9,30.05,ESE,120,25.0,-999.0,-999,-99.99,,,-99.99,,2013-01-11 03:43:00,
2013-01-10 21:53:00,60.0,-99.9,30.05,ESE,120,25.0,-999.0,-999,-99.99,,,-99.99,,2013-01-11 03:53:00,
2013-01-10 22:00:00,62.0,-99.9,30.03,ESE,120,33.0,-999.0,-999,-99.99,,,-99.99,,2013-01-11 04:00:00,
2013-01-10 22:12:00,61.0,-99.9,30.06,SE,130,31.0,-999.0,-999,-99.99,,,-99.99,,2013-01-11 04:12:00,
2013-01-10 22:23:00,61.0,-99.9,30.06,SE,130,31.0,-999.0,-999,-99.99,,,-99.99,,2013-01-11 04:23:00,
2013-01-10 22:30:00,62.0,-99.9,30.00,ESE,120,34.0,-999.0,-999,-99.99,,,-99.99,,2013-01-11 04:30:00,
2013-01-10 22:53:00,62.0,-99.9,30.03,ESE,120,33.0,-999.0,-999,-99.99,,,-99.99,,2013-01-11 04:53:00,
2013-01-10 23:00:00,63.0,-99.9,30.02,ESE,120,31.0,-999.0,-999,-99.99,,,-99.99,,2013-01-11 05:00:00,
2013-01-10 23:13:00,62.0,-99.9,30.00,ESE,120,34.0,-999.0,-999,-99.99,,,-99.99,,2013-01-11 05:13:00,
2013-01-10 23:23:00,62.0,-99.9,30.00,ESE,120,34.0,-999.0,-999,-99.99,,,-99.99,,2013-01-11 05:23:00,
2013-01-10 23:30:00,63.0,-99.9,30.09,SSE,150,17.0,-999.0,-999,-99.99,,,-99.99,,2013-01-11 05:30:00,
2013-01-10 23:53:00,63.0,-99.9,30.02,ESE,120,31.0,-999.0,-999,-99.99,,,-99.99,,2013-01-11 05:53:00,